sensor_id;sensor_type;location;lat;lon;timestamp;pressure;altitude;pressure_sealevel;temperature;humidity
69035;BME280;56091;55.756;37.412;2023-03-16T00:01:06;98577.25;;;3.91;69.96
69035;BME280;56091;55.756;37.412;2023-03-16T00:06:07;98567.75;;;3.96;69.10
69035;BME280;56091;55.756;37.412;2023-03-16T00:11:09;98576.13;;;3.99;69.04
69035;BME280;56091;55.756;37.412;2023-03-16T00:16:11;98561.72;;;4.00;68.88
69035;BME280;56091;55.756;37.412;2023-03-16T00:21:16;98545.47;;;4.02;68.40
69035;BME280;56091;55.756;37.412;2023-03-16T00:26:17;98539.69;;;4.05;68.64
69035;BME280;56091;55.756;37.412;2023-03-16T00:31:18;98542.72;;;4.08;68.88
69035;BME280;56091;55.756;37.412;2023-03-16T00:36:18;98537.25;;;4.03;69.13
69035;BME280;56091;55.756;37.412;2023-03-16T00:41:22;98560.22;;;4.04;69.21
69035;BME280;56091;55.756;37.412;2023-03-16T00:46:23;98552.09;;;3.99;69.38
69035;BME280;56091;55.756;37.412;2023-03-16T00:51:26;98557.56;;;4.04;69.55
69035;BME280;56091;55.756;37.412;2023-03-16T00:56:26;98547.00;;;4.09;69.77
69035;BME280;56091;55.756;37.412;2023-03-16T01:01:28;98552.91;;;4.11;69.65
69035;BME280;56091;55.756;37.412;2023-03-16T01:06:29;98555.47;;;4.06;70.12
69035;BME280;56091;55.756;37.412;2023-03-16T01:11:31;98551.16;;;4.05;70.30
69035;BME280;56091;55.756;37.412;2023-03-16T01:16:39;98550.00;;;4.13;70.79
69035;BME280;56091;55.756;37.412;2023-03-16T01:21:40;98558.16;;;4.18;71.10
69035;BME280;56091;55.756;37.412;2023-03-16T01:26:43;98549.66;;;4.09;71.21
69035;BME280;56091;55.756;37.412;2023-03-16T01:31:44;98562.53;;;4.01;71.86
69035;BME280;56091;55.756;37.412;2023-03-16T01:36:46;98562.31;;;4.02;72.03
69035;BME280;56091;55.756;37.412;2023-03-16T01:41:47;98571.34;;;4.01;72.00
69035;BME280;56091;55.756;37.412;2023-03-16T01:46:49;98545.81;;;3.82;72.46
69035;BME280;56091;55.756;37.412;2023-03-16T01:52:20;98577.91;;;3.75;73.04
69035;BME280;56091;55.756;37.412;2023-03-16T01:57:28;98576.66;;;3.78;73.34
69035;BME280;56091;55.756;37.412;2023-03-16T02:02:32;98570.16;;;3.85;72.97
69035;BME280;56091;55.756;37.412;2023-03-16T02:07:39;98564.94;;;3.90;72.74
69035;BME280;56091;55.756;37.412;2023-03-16T02:12:42;98568.19;;;3.92;72.40
69035;BME280;56091;55.756;37.412;2023-03-16T02:17:45;98578.06;;;3.92;72.62
69035;BME280;56091;55.756;37.412;2023-03-16T02:22:50;98582.38;;;3.93;72.35
69035;BME280;56091;55.756;37.412;2023-03-16T02:33:03;98567.88;;;3.89;72.77
69035;BME280;56091;55.756;37.412;2023-03-16T02:38:04;98581.22;;;3.89;72.55
69035;BME280;56091;55.756;37.412;2023-03-16T02:43:18;98559.00;;;3.77;72.89
69035;BME280;56091;55.756;37.412;2023-03-16T02:53:37;98549.63;;;3.86;72.93
69035;BME280;56091;55.756;37.412;2023-03-16T02:58:38;98553.81;;;3.82;73.18
69035;BME280;56091;55.756;37.412;2023-03-16T03:03:44;98552.44;;;3.91;72.98
69035;BME280;56091;55.756;37.412;2023-03-16T03:08:45;98539.75;;;3.86;72.91
69035;BME280;56091;55.756;37.412;2023-03-16T03:13:46;98555.78;;;3.98;72.64
69035;BME280;56091;55.756;37.412;2023-03-16T03:18:52;98559.19;;;4.05;72.65
69035;BME280;56091;55.756;37.412;2023-03-16T03:23:54;98558.16;;;4.06;72.44
69035;BME280;56091;55.756;37.412;2023-03-16T03:28:54;98551.16;;;4.05;72.28
69035;BME280;56091;55.756;37.412;2023-03-16T03:33:55;98543.28;;;4.10;72.36
69035;BME280;56091;55.756;37.412;2023-03-16T03:38:56;98532.25;;;4.07;72.19
69035;BME280;56091;55.756;37.412;2023-03-16T03:43:58;98533.56;;;4.16;72.13
69035;BME280;56091;55.756;37.412;2023-03-16T03:49:00;98508.59;;;3.99;72.21
69035;BME280;56091;55.756;37.412;2023-03-16T03:54:06;98532.25;;;4.07;72.36
69035;BME280;56091;55.756;37.412;2023-03-16T03:59:07;98542.59;;;4.15;72.19
69035;BME280;56091;55.756;37.412;2023-03-16T04:04:31;98541.06;;;4.07;72.27
69035;BME280;56091;55.756;37.412;2023-03-16T04:09:32;98550.25;;;4.11;72.35
69035;BME280;56091;55.756;37.412;2023-03-16T04:14:33;98527.28;;;4.10;72.26
69035;BME280;56091;55.756;37.412;2023-03-16T04:19:38;98532.63;;;4.10;72.36
69035;BME280;56091;55.756;37.412;2023-03-16T04:24:43;98530.53;;;4.13;72.17
69035;BME280;56091;55.756;37.412;2023-03-16T04:29:46;98535.63;;;4.14;72.40
69035;BME280;56091;55.756;37.412;2023-03-16T04:34:47;98542.38;;;4.17;72.38
69035;BME280;56091;55.756;37.412;2023-03-16T04:39:50;98547.59;;;4.23;72.09
69035;BME280;56091;55.756;37.412;2023-03-16T04:44:53;98552.81;;;4.42;71.72
69035;BME280;56091;55.756;37.412;2023-03-16T04:49:55;98555.72;;;4.52;70.72
69035;BME280;56091;55.756;37.412;2023-03-16T04:54:57;98568.50;;;4.38;70.79
69035;BME280;56091;55.756;37.412;2023-03-16T04:59:58;98578.13;;;4.63;70.86
69035;BME280;56091;55.756;37.412;2023-03-16T05:05:13;98574.31;;;4.71;69.63
69035;BME280;56091;55.756;37.412;2023-03-16T05:10:17;98578.47;;;4.55;69.85
69035;BME280;56091;55.756;37.412;2023-03-16T05:15:19;98577.56;;;4.37;70.93
69035;BME280;56091;55.756;37.412;2023-03-16T05:20:30;98573.03;;;4.26;71.10
69035;BME280;56091;55.756;37.412;2023-03-16T05:25:34;98587.41;;;4.25;71.42
69035;BME280;56091;55.756;37.412;2023-03-16T05:30:38;98577.78;;;4.12;71.92
69035;BME280;56091;55.756;37.412;2023-03-16T05:35:42;98582.03;;;4.13;71.91
69035;BME280;56091;55.756;37.412;2023-03-16T05:40:45;98579.41;;;4.72;71.06
69035;BME280;56091;55.756;37.412;2023-03-16T05:46:10;98584.69;;;5.48;67.44
69035;BME280;56091;55.756;37.412;2023-03-16T05:51:12;98581.31;;;5.53;66.77
69035;BME280;56091;55.756;37.412;2023-03-16T05:56:14;98594.59;;;5.07;68.27
69035;BME280;56091;55.756;37.412;2023-03-16T06:01:19;98591.28;;;4.76;69.48
69035;BME280;56091;55.756;37.412;2023-03-16T06:06:20;98582.88;;;4.61;70.41
69035;BME280;56091;55.756;37.412;2023-03-16T06:11:30;98601.13;;;4.76;70.45
69035;BME280;56091;55.756;37.412;2023-03-16T06:16:33;98595.94;;;4.57;71.10
69035;BME280;56091;55.756;37.412;2023-03-16T06:21:35;98596.03;;;4.39;71.77
69035;BME280;56091;55.756;37.412;2023-03-16T06:26:44;98623.31;;;4.41;72.77
69035;BME280;56091;55.756;37.412;2023-03-16T06:31:47;98617.63;;;4.84;72.27
69035;BME280;56091;55.756;37.412;2023-03-16T06:36:51;98620.50;;;4.95;70.94
69035;BME280;56091;55.756;37.412;2023-03-16T06:41:53;98609.50;;;4.79;71.04
69035;BME280;56091;55.756;37.412;2023-03-16T06:46:54;98592.66;;;4.55;71.46
69035;BME280;56091;55.756;37.412;2023-03-16T06:51:56;98612.75;;;4.58;71.46
69035;BME280;56091;55.756;37.412;2023-03-16T06:56:59;98617.38;;;4.62;71.11
69035;BME280;56091;55.756;37.412;2023-03-16T07:02:01;98625.75;;;4.66;71.25
69035;BME280;56091;55.756;37.412;2023-03-16T07:07:05;98606.25;;;4.77;71.47
69035;BME280;56091;55.756;37.412;2023-03-16T07:12:06;98624.25;;;4.94;71.18
69035;BME280;56091;55.756;37.412;2023-03-16T07:17:07;98629.47;;;4.88;71.10
69035;BME280;56091;55.756;37.412;2023-03-16T07:22:08;98617.63;;;4.84;70.68
69035;BME280;56091;55.756;37.412;2023-03-16T07:27:12;98623.75;;;4.97;71.01
69035;BME280;56091;55.756;37.412;2023-03-16T07:32:13;98618.69;;;4.95;71.25
69035;BME280;56091;55.756;37.412;2023-03-16T07:37:14;98615.22;;;5.35;70.56
69035;BME280;56091;55.756;37.412;2023-03-16T07:42:23;98609.31;;;5.33;69.90
69035;BME280;56091;55.756;37.412;2023-03-16T07:47:33;98610.34;;;5.32;70.42
69035;BME280;56091;55.756;37.412;2023-03-16T07:52:45;98599.53;;;5.39;70.45
69035;BME280;56091;55.756;37.412;2023-03-16T07:57:46;98605.88;;;5.50;69.75
69035;BME280;56091;55.756;37.412;2023-03-16T08:02:50;98603.41;;;5.48;69.95
69035;BME280;56091;55.756;37.412;2023-03-16T08:07:52;98611.44;;;5.48;70.29
69035;BME280;56091;55.756;37.412;2023-03-16T08:12:56;98627.41;;;5.43;70.35
69035;BME280;56091;55.756;37.412;2023-03-16T08:17:58;98625.47;;;5.26;70.86
69035;BME280;56091;55.756;37.412;2023-03-16T08:23:00;98622.94;;;5.08;71.04
69035;BME280;56091;55.756;37.412;2023-03-16T08:28:09;98616.94;;;5.01;71.16
69035;BME280;56091;55.756;37.412;2023-03-16T08:33:11;98603.03;;;5.16;70.64
69035;BME280;56091;55.756;37.412;2023-03-16T08:38:13;98607.81;;;5.25;70.51
69035;BME280;56091;55.756;37.412;2023-03-16T08:43:17;98617.44;;;5.26;71.33
69035;BME280;56091;55.756;37.412;2023-03-16T08:48:19;98611.41;;;5.19;72.02
69035;BME280;56091;55.756;37.412;2023-03-16T08:53:23;98631.97;;;5.31;73.01
69035;BME280;56091;55.756;37.412;2023-03-16T08:58:24;98600.03;;;5.12;73.68
69035;BME280;56091;55.756;37.412;2023-03-16T09:03:25;98615.16;;;5.18;74.17
69035;BME280;56091;55.756;37.412;2023-03-16T09:08:26;98629.28;;;5.31;73.76
69035;BME280;56091;55.756;37.412;2023-03-16T09:13:28;98624.53;;;5.33;74.14
69035;BME280;56091;55.756;37.412;2023-03-16T09:18:30;98616.66;;;5.55;72.91
69035;BME280;56091;55.756;37.412;2023-03-16T09:23:35;98618.91;;;5.75;72.25
69035;BME280;56091;55.756;37.412;2023-03-16T09:28:40;98621.91;;;5.78;72.46
69035;BME280;56091;55.756;37.412;2023-03-16T09:33:41;98623.63;;;5.67;72.84
69035;BME280;56091;55.756;37.412;2023-03-16T09:38:42;98620.69;;;5.69;73.16
69035;BME280;56091;55.756;37.412;2023-03-16T09:44:02;98620.38;;;5.65;73.02
69035;BME280;56091;55.756;37.412;2023-03-16T09:49:05;98630.34;;;5.70;73.55
69035;BME280;56091;55.756;37.412;2023-03-16T09:54:19;98624.25;;;5.75;73.03
69035;BME280;56091;55.756;37.412;2023-03-16T09:59:24;98623.28;;;5.64;73.47
69035;BME280;56091;55.756;37.412;2023-03-16T10:04:55;98630.50;;;5.63;73.67
69035;BME280;56091;55.756;37.412;2023-03-16T10:15:26;98623.75;;;5.61;74.18
69035;BME280;56091;55.756;37.412;2023-03-16T10:20:32;98634.59;;;5.54;75.44
69035;BME280;56091;55.756;37.412;2023-03-16T10:25:47;98635.84;;;5.63;75.32
69035;BME280;56091;55.756;37.412;2023-03-16T10:30:50;98630.69;;;5.74;73.63
69035;BME280;56091;55.756;37.412;2023-03-16T10:40:58;98615.88;;;5.42;74.47
69035;BME280;56091;55.756;37.412;2023-03-16T10:46:00;98606.97;;;5.25;74.36
69035;BME280;56091;55.756;37.412;2023-03-16T10:51:06;98641.72;;;5.37;74.70
69035;BME280;56091;55.756;37.412;2023-03-16T10:56:18;98634.28;;;5.27;75.12
69035;BME280;56091;55.756;37.412;2023-03-16T11:01:24;98629.44;;;5.24;74.70
69035;BME280;56091;55.756;37.412;2023-03-16T11:06:31;98630.81;;;5.26;74.40
69035;BME280;56091;55.756;37.412;2023-03-16T11:11:32;98642.09;;;5.28;74.91
69035;BME280;56091;55.756;37.412;2023-03-16T11:16:40;98637.81;;;5.27;74.34
69035;BME280;56091;55.756;37.412;2023-03-16T11:26:47;98640.47;;;5.27;73.88
69035;BME280;56091;55.756;37.412;2023-03-16T11:32:04;98639.41;;;5.28;74.23
69035;BME280;56091;55.756;37.412;2023-03-16T12:03:38;98669.19;;;4.97;75.23
69035;BME280;56091;55.756;37.412;2023-03-16T12:08:48;98686.19;;;4.91;75.42
69035;BME280;56091;55.756;37.412;2023-03-16T12:14:40;98680.38;;;4.82;75.66
69035;BME280;56091;55.756;37.412;2023-03-16T12:25:19;98670.00;;;4.38;78.03
69035;BME280;56091;55.756;37.412;2023-03-16T12:30:47;98678.81;;;4.39;79.07
69035;BME280;56091;55.756;37.412;2023-03-16T12:36:01;98688.00;;;4.13;80.89
69035;BME280;56091;55.756;37.412;2023-03-16T12:46:48;98689.13;;;3.93;82.59
69035;BME280;56091;55.756;37.412;2023-03-16T12:52:05;98697.91;;;3.94;83.14
69035;BME280;56091;55.756;37.412;2023-03-16T12:57:08;98709.28;;;3.89;83.05
69035;BME280;56091;55.756;37.412;2023-03-16T13:02:43;98705.03;;;3.81;83.34
69035;BME280;56091;55.756;37.412;2023-03-16T13:07:51;98712.84;;;3.83;83.68
69035;BME280;56091;55.756;37.412;2023-03-16T13:13:11;98717.91;;;3.72;84.53
69035;BME280;56091;55.756;37.412;2023-03-16T13:28:19;98701.28;;;3.33;86.78
69035;BME280;56091;55.756;37.412;2023-03-16T13:33:23;98706.19;;;3.37;87.62
69035;BME280;56091;55.756;37.412;2023-03-16T13:38:27;98678.84;;;3.41;88.28
69035;BME280;56091;55.756;37.412;2023-03-16T13:43:30;98698.19;;;3.55;86.51
69035;BME280;56091;55.756;37.412;2023-03-16T13:48:36;98702.34;;;3.51;87.30
69035;BME280;56091;55.756;37.412;2023-03-16T13:53:39;98702.25;;;3.58;87.62
69035;BME280;56091;55.756;37.412;2023-03-16T13:58:43;98705.59;;;3.35;86.42
69035;BME280;56091;55.756;37.412;2023-03-16T14:03:46;98707.75;;;3.44;86.45
69035;BME280;56091;55.756;37.412;2023-03-16T14:08:50;98710.63;;;3.24;87.51
69035;BME280;56091;55.756;37.412;2023-03-16T14:13:54;98698.41;;;3.17;87.78
69035;BME280;56091;55.756;37.412;2023-03-16T14:19:00;98702.88;;;3.23;87.78
69035;BME280;56091;55.756;37.412;2023-03-16T14:24:28;98704.63;;;3.29;87.53
69035;BME280;56091;55.756;37.412;2023-03-16T14:29:30;98700.69;;;3.31;86.94
69035;BME280;56091;55.756;37.412;2023-03-16T14:34:37;98696.41;;;3.12;86.94
69035;BME280;56091;55.756;37.412;2023-03-16T14:39:41;98711.16;;;2.89;86.94
69035;BME280;56091;55.756;37.412;2023-03-16T14:44:43;98712.81;;;3.09;86.80
69035;BME280;56091;55.756;37.412;2023-03-16T14:49:44;98739.00;;;2.93;86.82
69035;BME280;56091;55.756;37.412;2023-03-16T14:54:45;98741.16;;;3.03;87.04
69035;BME280;56091;55.756;37.412;2023-03-16T14:59:47;98732.78;;;3.25;86.14
69035;BME280;56091;55.756;37.412;2023-03-16T15:04:48;98731.09;;;3.30;85.03
69035;BME280;56091;55.756;37.412;2023-03-16T15:09:53;98737.59;;;3.35;84.37
69035;BME280;56091;55.756;37.412;2023-03-16T15:14:54;98751.09;;;3.40;84.04
69035;BME280;56091;55.756;37.412;2023-03-16T15:20:22;98741.16;;;3.47;83.62
69035;BME280;56091;55.756;37.412;2023-03-16T15:30:38;98761.09;;;3.63;83.38
69035;BME280;56091;55.756;37.412;2023-03-16T15:35:40;98761.47;;;3.48;83.54
69035;BME280;56091;55.756;37.412;2023-03-16T15:40:42;98771.13;;;3.24;84.37
69035;BME280;56091;55.756;37.412;2023-03-16T15:45:45;98790.56;;;3.49;84.00
69035;BME280;56091;55.756;37.412;2023-03-16T15:50:51;98772.56;;;3.26;83.90
69035;BME280;56091;55.756;37.412;2023-03-16T15:55:54;98788.09;;;3.04;84.29
69035;BME280;56091;55.756;37.412;2023-03-16T16:00:59;98797.28;;;2.51;85.57
69035;BME280;56091;55.756;37.412;2023-03-16T16:06:09;98834.22;;;2.41;86.24
69035;BME280;56091;55.756;37.412;2023-03-16T16:11:23;98826.44;;;2.40;86.49
69035;BME280;56091;55.756;37.412;2023-03-16T16:16:26;98840.41;;;2.28;86.77
69035;BME280;56091;55.756;37.412;2023-03-16T16:21:31;98850.75;;;2.50;86.04
69035;BME280;56091;55.756;37.412;2023-03-16T16:26:41;98859.56;;;2.50;85.63
69035;BME280;56091;55.756;37.412;2023-03-16T16:31:44;98864.91;;;2.44;85.64
69035;BME280;56091;55.756;37.412;2023-03-16T16:36:46;98853.66;;;2.42;84.67
69035;BME280;56091;55.756;37.412;2023-03-16T16:41:49;98876.28;;;2.64;84.82
69035;BME280;56091;55.756;37.412;2023-03-16T16:46:50;98877.69;;;2.67;83.91
69035;BME280;56091;55.756;37.412;2023-03-16T16:51:52;98880.19;;;2.62;83.73
69035;BME280;56091;55.756;37.412;2023-03-16T16:56:54;98900.06;;;2.59;84.45
69035;BME280;56091;55.756;37.412;2023-03-16T17:01:55;98895.66;;;2.33;85.43
69035;BME280;56091;55.756;37.412;2023-03-16T17:06:58;98899.78;;;2.36;85.13
69035;BME280;56091;55.756;37.412;2023-03-16T17:12:01;98898.56;;;2.25;85.54
69035;BME280;56091;55.756;37.412;2023-03-16T17:17:05;98910.19;;;2.44;85.67
69035;BME280;56091;55.756;37.412;2023-03-16T17:22:25;98909.56;;;2.42;84.92
69035;BME280;56091;55.756;37.412;2023-03-16T17:27:30;98896.84;;;2.50;84.95
69035;BME280;56091;55.756;37.412;2023-03-16T17:32:32;98910.41;;;2.36;84.37
69035;BME280;56091;55.756;37.412;2023-03-16T17:37:33;98907.97;;;2.27;84.54
69035;BME280;56091;55.756;37.412;2023-03-16T17:42:33;98915.53;;;2.30;84.54
69035;BME280;56091;55.756;37.412;2023-03-16T17:47:34;98928.25;;;2.28;84.42
69035;BME280;56091;55.756;37.412;2023-03-16T17:52:38;98934.78;;;2.32;84.16
69035;BME280;56091;55.756;37.412;2023-03-16T17:57:39;98919.06;;;2.24;84.57
69035;BME280;56091;55.756;37.412;2023-03-16T18:02:48;98946.91;;;2.15;84.89
69035;BME280;56091;55.756;37.412;2023-03-16T18:07:50;98934.44;;;2.09;85.43
69035;BME280;56091;55.756;37.412;2023-03-16T18:12:56;98932.63;;;1.96;85.62
69035;BME280;56091;55.756;37.412;2023-03-16T18:17:59;98913.41;;;1.81;85.70
69035;BME280;56091;55.756;37.412;2023-03-16T18:23:02;98957.19;;;1.98;85.87
69035;BME280;56091;55.756;37.412;2023-03-16T18:28:10;98956.78;;;1.74;86.15
69035;BME280;56091;55.756;37.412;2023-03-16T18:38:38;98964.53;;;1.89;85.22
69035;BME280;56091;55.756;37.412;2023-03-16T18:43:39;98971.09;;;1.87;85.25
69035;BME280;56091;55.756;37.412;2023-03-16T18:48:40;98962.09;;;1.74;85.60
69035;BME280;56091;55.756;37.412;2023-03-16T18:53:41;98966.59;;;1.94;84.74
69035;BME280;56091;55.756;37.412;2023-03-16T18:58:42;98978.44;;;2.05;84.29
69035;BME280;56091;55.756;37.412;2023-03-16T19:03:42;98986.66;;;1.83;84.81
69035;BME280;56091;55.756;37.412;2023-03-16T19:08:43;98986.44;;;1.71;84.95
69035;BME280;56091;55.756;37.412;2023-03-16T19:13:44;98996.06;;;1.72;84.95
69035;BME280;56091;55.756;37.412;2023-03-16T19:18:45;98993.22;;;1.67;85.04
69035;BME280;56091;55.756;37.412;2023-03-16T19:23:54;98993.78;;;1.43;85.54
69035;BME280;56091;55.756;37.412;2023-03-16T19:28:56;99020.59;;;1.74;85.20
69035;BME280;56091;55.756;37.412;2023-03-16T19:33:57;99018.59;;;1.77;84.79
69035;BME280;56091;55.756;37.412;2023-03-16T19:38:58;99016.91;;;1.49;85.36
69035;BME280;56091;55.756;37.412;2023-03-16T19:44:05;99032.25;;;1.53;84.96
69035;BME280;56091;55.756;37.412;2023-03-16T19:49:19;99039.44;;;1.60;84.81
69035;BME280;56091;55.756;37.412;2023-03-16T19:54:23;99045.53;;;1.53;84.79
69035;BME280;56091;55.756;37.412;2023-03-16T19:59:32;99032.03;;;1.55;85.16
69035;BME280;56091;55.756;37.412;2023-03-16T20:04:34;99049.25;;;1.72;84.03
69035;BME280;56091;55.756;37.412;2023-03-16T20:09:34;99041.69;;;1.83;83.20
69035;BME280;56091;55.756;37.412;2023-03-16T20:14:35;99040.47;;;1.65;82.99
69035;BME280;56091;55.756;37.412;2023-03-16T20:19:36;99042.50;;;1.63;81.67
69035;BME280;56091;55.756;37.412;2023-03-16T20:24:37;99055.13;;;1.48;81.53
69035;BME280;56091;55.756;37.412;2023-03-16T20:29:38;99053.91;;;1.37;81.09
69035;BME280;56091;55.756;37.412;2023-03-16T20:34:41;99060.09;;;1.58;80.90
69035;BME280;56091;55.756;37.412;2023-03-16T20:39:42;99073.97;;;1.46;80.04
69035;BME280;56091;55.756;37.412;2023-03-16T20:44:44;99068.66;;;1.46;80.17
69035;BME280;56091;55.756;37.412;2023-03-16T20:49:46;99060.44;;;1.48;79.83
69035;BME280;56091;55.756;37.412;2023-03-16T20:54:48;99062.75;;;1.71;79.22
69035;BME280;56091;55.756;37.412;2023-03-16T20:59:50;99075.25;;;1.77;78.16
69035;BME280;56091;55.756;37.412;2023-03-16T21:04:54;99089.31;;;1.64;78.75
69035;BME280;56091;55.756;37.412;2023-03-16T21:09:58;99087.84;;;1.42;79.72
69035;BME280;56091;55.756;37.412;2023-03-16T21:14:59;99100.75;;;1.51;80.17
69035;BME280;56091;55.756;37.412;2023-03-16T21:20:15;99101.63;;;1.65;79.75
69035;BME280;56091;55.756;37.412;2023-03-16T21:25:30;99100.84;;;1.85;78.83
69035;BME280;56091;55.756;37.412;2023-03-16T21:30:39;99106.53;;;1.82;78.23
69035;BME280;56091;55.756;37.412;2023-03-16T21:35:42;99110.41;;;1.72;78.31
69035;BME280;56091;55.756;37.412;2023-03-16T21:40:43;99105.94;;;1.86;77.80
69035;BME280;56091;55.756;37.412;2023-03-16T21:45:45;99116.19;;;1.83;77.27
69035;BME280;56091;55.756;37.412;2023-03-16T21:50:48;99106.13;;;1.71;77.93
69035;BME280;56091;55.756;37.412;2023-03-16T21:55:50;99108.53;;;1.53;78.35
69035;BME280;56091;55.756;37.412;2023-03-16T22:00:53;99122.47;;;1.68;78.03
69035;BME280;56091;55.756;37.412;2023-03-16T22:05:55;99120.03;;;1.73;77.93
69035;BME280;56091;55.756;37.412;2023-03-16T22:10:56;99128.84;;;1.81;77.26
69035;BME280;56091;55.756;37.412;2023-03-16T22:15:57;99119.00;;;1.74;77.08
69035;BME280;56091;55.756;37.412;2023-03-16T22:20:59;99131.53;;;1.81;76.59
69035;BME280;56091;55.756;37.412;2023-03-16T22:26:03;99130.41;;;1.55;77.01
69035;BME280;56091;55.756;37.412;2023-03-16T22:31:04;99139.63;;;1.59;76.59
69035;BME280;56091;55.756;37.412;2023-03-16T22:36:15;99145.56;;;1.54;76.84
69035;BME280;56091;55.756;37.412;2023-03-16T22:41:17;99150.88;;;1.54;77.32
69035;BME280;56091;55.756;37.412;2023-03-16T22:46:28;99147.63;;;1.72;76.48
69035;BME280;56091;55.756;37.412;2023-03-16T22:51:32;99149.91;;;1.75;75.80
69035;BME280;56091;55.756;37.412;2023-03-16T22:56:37;99162.88;;;1.44;76.98
69035;BME280;56091;55.756;37.412;2023-03-16T23:01:40;99153.53;;;1.54;76.62
69035;BME280;56091;55.756;37.412;2023-03-16T23:06:48;99150.25;;;1.59;76.04
69035;BME280;56091;55.756;37.412;2023-03-16T23:11:51;99154.81;;;1.65;75.69
69035;BME280;56091;55.756;37.412;2023-03-16T23:16:52;99164.88;;;1.77;75.43
69035;BME280;56091;55.756;37.412;2023-03-16T23:21:55;99148.41;;;1.53;75.59
69035;BME280;56091;55.756;37.412;2023-03-16T23:26:57;99171.34;;;1.61;76.08
69035;BME280;56091;55.756;37.412;2023-03-16T23:31:58;99181.16;;;1.67;75.63
69035;BME280;56091;55.756;37.412;2023-03-16T23:36:59;99179.88;;;1.49;75.67
69035;BME280;56091;55.756;37.412;2023-03-16T23:42:00;99180.31;;;1.53;75.88
69035;BME280;56091;55.756;37.412;2023-03-16T23:47:01;99178.03;;;1.50;75.51
69035;BME280;56091;55.756;37.412;2023-03-16T23:52:02;99200.09;;;1.44;75.76
69035;BME280;56091;55.756;37.412;2023-03-16T23:57:04;99203.00;;;1.55;75.48
